Time;durP1;ratioP1;P1;durP2;ratioP2;P2;SDS_P1;SDS_P2;PMS_P1;PMS_P2;Temp;Humidity;BMP_temperature;BMP_pressure;BME280_temperature;BME280_humidity;BME280_pressure;Samples;Min_cycle;Max_cycle;Signal;HPM_P1;HPM_P2
2023/12/27 00:01:13;;;;;;;7.72;1.50;;;;;;;;;;5089150;28;20128;-66
2023/12/27 00:03:39;;;;;;;6.53;1.30;;;;;;;;;;5091258;28;20111;-66
2023/12/27 00:06:04;;;;;;;8.70;1.60;;;;;;;;;;5090875;28;20066;-66
2023/12/27 00:08:30;;;;;;;15.90;2.40;;;;;;;;;;5090972;28;20069;-66
2023/12/27 00:10:55;;;;;;;15.95;2.20;;;;;;;;;;5091068;28;20101;-66
2023/12/27 00:13:21;;;;;;;10.70;2.08;;;;;;;;;;5090722;28;20049;-67
2023/12/27 00:15:47;;;;;;;12.98;1.98;;;;;;;;;;5090582;28;20044;-67
2023/12/27 00:18:12;;;;;;;18.85;2.25;;;;;;;;;;5091048;28;20031;-66
2023/12/27 00:20:37;;;;;;;16.45;1.98;;;;;;;;;;5091059;28;20028;-66
2023/12/27 00:23:03;;;;;;;15.10;2.20;;;;;;;;;;5090760;28;20111;-66
2023/12/27 00:25:28;;;;;;;16.08;1.95;;;;;;;;;;5090416;28;20063;-66
2023/12/27 00:27:53;;;;;;;18.42;2.53;;;;;;;;;;5090621;28;20541;-66
2023/12/27 00:30:18;;;;;;;16.77;1.88;;;;;;;;;;5090126;28;20089;-66
2023/12/27 00:32:44;;;;;;;15.80;2.25;;;;;;;;;;5091153;28;20040;-66
2023/12/27 00:35:09;;;;;;;12.25;1.75;;;;;;;;;;5090700;28;20027;-66
2023/12/27 00:37:34;;;;;;;15.43;1.98;;;;;;;;;;5090545;28;20354;-66
2023/12/27 00:40:00;;;;;;;9.55;2.15;;;;;;;;;;5090586;28;20040;-66
2023/12/27 00:42:25;;;;;;;19.10;2.22;;;;;;;;;;5090478;28;20050;-66
2023/12/27 00:44:51;;;;;;;12.60;1.90;;;;;;;;;;5090074;28;20668;-66
2023/12/27 00:47:16;;;;;;;13.55;2.00;;;;;;;;;;5090420;28;20028;-66
2023/12/27 00:49:42;;;;;;;11.48;1.60;;;;;;;;;;5090216;28;20080;-66
2023/12/27 00:52:07;;;;;;;11.07;2.10;;;;;;;;;;5090058;28;20057;-66
2023/12/27 00:54:32;;;;;;;23.58;2.10;;;;;;;;;;5090469;28;20036;-66
2023/12/27 00:56:58;;;;;;;13.57;2.17;;;;;;;;;;5090082;28;20532;-67
2023/12/27 00:59:23;;;;;;;14.40;1.73;;;;;;;;;;5089127;28;20036;-66
2023/12/27 01:01:48;;;;;;;18.02;2.10;;;;;;;;;;5097196;28;20051;-66
2023/12/27 01:04:14;;;;;;;10.98;2.05;;;;;;;;;;5097435;28;20036;-66
2023/12/27 01:06:39;;;;;;;10.55;1.40;;;;;;;;;;5097083;28;20040;-66
2023/12/27 01:09:06;;;;;;;10.65;2.00;;;;;;;;;;5095189;28;20040;-66
2023/12/27 01:11:32;;;;;;;16.92;2.53;;;;;;;;;;5096794;28;20043;-66
2023/12/27 01:13:57;;;;;;;11.57;2.25;;;;;;;;;;5096730;28;20036;-67
2023/12/27 01:16:23;;;;;;;17.27;2.58;;;;;;;;;;5096575;28;20043;-66
2023/12/27 01:18:49;;;;;;;15.27;2.10;;;;;;;;;;5079099;28;20036;-66
2023/12/27 01:21:14;;;;;;;8.82;1.50;;;;;;;;;;5096930;28;20055;-66
2023/12/27 01:23:40;;;;;;;12.57;1.85;;;;;;;;;;5096933;28;20247;-66
2023/12/27 01:26:05;;;;;;;9.43;1.80;;;;;;;;;;5097034;28;20032;-67
2023/12/27 01:28:30;;;;;;;12.98;1.75;;;;;;;;;;5096441;28;20040;-66
2023/12/27 01:30:56;;;;;;;4.18;1.60;;;;;;;;;;5096980;28;20024;-66
2023/12/27 01:33:21;;;;;;;16.65;1.60;;;;;;;;;;5096893;28;20111;-66
2023/12/27 01:35:46;;;;;;;8.43;1.67;;;;;;;;;;5096776;28;20512;-66
2023/12/27 01:38:12;;;;;;;12.63;1.63;;;;;;;;;;5085619;28;20028;-66
2023/12/27 01:40:37;;;;;;;6.95;1.80;;;;;;;;;;5096837;28;20035;-66
2023/12/27 01:43:02;;;;;;;8.32;1.88;;;;;;;;;;5096926;28;20392;-67
2023/12/27 01:45:28;;;;;;;12.77;2.17;;;;;;;;;;5094222;28;20056;-67
2023/12/27 01:47:53;;;;;;;5.63;1.90;;;;;;;;;;5096703;28;20020;-67
2023/12/27 01:50:20;;;;;;;12.40;2.50;;;;;;;;;;5078597;28;20040;-67
2023/12/27 01:52:45;;;;;;;8.63;1.70;;;;;;;;;;5078354;28;20044;-66
2023/12/27 01:55:11;;;;;;;8.77;1.75;;;;;;;;;;5075909;28;20037;-66
2023/12/27 01:57:40;;;;;;;9.98;2.10;;;;;;;;;;5078660;28;20039;-66
2023/12/27 02:00:07;;;;;;;12.85;2.65;;;;;;;;;;5076927;28;20040;-66
2023/12/27 02:02:33;;;;;;;3.70;1.55;;;;;;;;;;5078504;28;20111;-66
2023/12/27 02:04:58;;;;;;;8.20;2.00;;;;;;;;;;5094623;28;20040;-66
2023/12/27 02:07:23;;;;;;;13.55;1.73;;;;;;;;;;5096315;28;20098;-67
2023/12/27 02:09:50;;;;;;;6.10;1.90;;;;;;;;;;5096702;28;20056;-67
2023/12/27 02:12:26;;;;;;;5.30;1.60;;;;;;;;;;5073984;28;20518;-66
2023/12/27 02:14:51;;;;;;;5.07;1.85;;;;;;;;;;5090898;28;20050;-66
2023/12/27 02:17:16;;;;;;;17.02;2.20;;;;;;;;;;5093031;28;20123;-66
2023/12/27 02:19:42;;;;;;;9.82;1.95;;;;;;;;;;5075148;28;20032;-67
2023/12/27 02:22:09;;;;;;;7.13;2.47;;;;;;;;;;5092859;28;20467;-66
2023/12/27 02:24:35;;;;;;;9.75;2.00;;;;;;;;;;5073952;28;20507;-67
2023/12/27 02:27:00;;;;;;;6.57;1.90;;;;;;;;;;5074939;28;20036;-67
2023/12/27 02:29:25;;;;;;;6.43;2.15;;;;;;;;;;5072544;28;20043;-67
2023/12/27 02:31:52;;;;;;;8.85;2.17;;;;;;;;;;5074741;28;20044;-66
2023/12/27 02:34:18;;;;;;;7.28;2.33;;;;;;;;;;5093075;28;20039;-66
2023/12/27 02:36:43;;;;;;;5.85;2.00;;;;;;;;;;5092550;28;20040;-66
2023/12/27 02:39:09;;;;;;;10.60;2.72;;;;;;;;;;5092798;28;20035;-66
2023/12/27 02:41:34;;;;;;;5.20;1.75;;;;;;;;;;5092908;28;20471;-66
2023/12/27 02:43:59;;;;;;;5.55;2.03;;;;;;;;;;5092368;28;20059;-66
2023/12/27 02:46:25;;;;;;;13.82;3.22;;;;;;;;;;5092510;28;20467;-66
2023/12/27 02:48:50;;;;;;;6.68;2.15;;;;;;;;;;5092751;28;20027;-66
2023/12/27 02:51:15;;;;;;;6.97;2.25;;;;;;;;;;5092443;28;20481;-67
2023/12/27 02:53:41;;;;;;;6.18;2.15;;;;;;;;;;5092621;28;20028;-67
2023/12/27 02:56:08;;;;;;;6.03;2.03;;;;;;;;;;5092654;28;20381;-67
2023/12/27 02:58:33;;;;;;;8.70;2.58;;;;;;;;;;5071216;28;20518;-66
2023/12/27 03:00:58;;;;;;;6.75;2.80;;;;;;;;;;5091952;28;20028;-66
2023/12/27 03:03:24;;;;;;;6.25;2.65;;;;;;;;;;5092234;28;20675;-67
2023/12/27 03:05:49;;;;;;;8.60;3.25;;;;;;;;;;5091942;28;20553;-67
2023/12/27 03:08:14;;;;;;;11.07;3.05;;;;;;;;;;5092260;28;20461;-67
2023/12/27 03:10:40;;;;;;;7.50;2.78;;;;;;;;;;5092320;28;20115;-67
2023/12/27 03:13:06;;;;;;;6.30;3.05;;;;;;;;;;5091735;28;20130;-66
2023/12/27 03:15:31;;;;;;;8.02;3.40;;;;;;;;;;5091814;28;20039;-66
2023/12/27 03:17:56;;;;;;;9.43;3.30;;;;;;;;;;5091946;28;20042;-66
2023/12/27 03:20:22;;;;;;;8.60;3.50;;;;;;;;;;5091710;28;20032;-67
2023/12/27 03:22:47;;;;;;;5.57;3.38;;;;;;;;;;5091745;28;20040;-67
2023/12/27 03:25:12;;;;;;;6.10;2.97;;;;;;;;;;5091904;28;20145;-66
2023/12/27 03:27:39;;;;;;;11.82;3.30;;;;;;;;;;5091836;28;20105;-66
2023/12/27 03:30:05;;;;;;;9.65;2.65;;;;;;;;;;5091646;28;20042;-66
2023/12/27 03:32:30;;;;;;;5.13;2.65;;;;;;;;;;5091596;28;20027;-67
2023/12/27 03:34:56;;;;;;;5.30;2.90;;;;;;;;;;5091907;28;20044;-66
2023/12/27 03:37:21;;;;;;;8.52;3.40;;;;;;;;;;5091343;28;20406;-66
2023/12/27 03:39:50;;;;;;;8.52;3.65;;;;;;;;;;5091841;28;20466;-66
2023/12/27 03:42:19;;;;;;;6.22;3.28;;;;;;;;;;5091667;28;20047;-67
2023/12/27 03:44:44;;;;;;;5.18;3.08;;;;;;;;;;5091026;28;20069;-66
2023/12/27 03:47:09;;;;;;;7.57;3.85;;;;;;;;;;5091414;28;20424;-67
2023/12/27 03:49:35;;;;;;;7.35;3.08;;;;;;;;;;5091304;28;20040;-66
2023/12/27 03:52:00;;;;;;;10.23;3.75;;;;;;;;;;5091257;28;20391;-67
2023/12/27 03:54:25;;;;;;;6.05;2.78;;;;;;;;;;5091329;28;20580;-66
2023/12/27 03:56:51;;;;;;;8.85;3.50;;;;;;;;;;5091402;28;20496;-67
2023/12/27 03:59:16;;;;;;;8.90;3.47;;;;;;;;;;5090788;28;20036;-67
2023/12/27 04:01:41;;;;;;;7.32;3.08;;;;;;;;;;5091182;28;20035;-66
2023/12/27 04:04:07;;;;;;;5.50;3.10;;;;;;;;;;5091207;28;20039;-66
2023/12/27 04:06:33;;;;;;;6.68;2.40;;;;;;;;;;5090534;28;20130;-66
2023/12/27 04:08:58;;;;;;;4.78;2.53;;;;;;;;;;5091119;28;20043;-66
2023/12/27 04:11:23;;;;;;;9.68;2.67;;;;;;;;;;5090992;28;20040;-67
2023/12/27 04:13:49;;;;;;;8.52;2.38;;;;;;;;;;5090990;28;20036;-66
2023/12/27 04:16:14;;;;;;;6.30;2.08;;;;;;;;;;5090988;28;20034;-67
2023/12/27 04:18:39;;;;;;;15.30;2.70;;;;;;;;;;5090844;28;20043;-67
2023/12/27 04:21:05;;;;;;;6.20;2.08;;;;;;;;;;5090614;28;20044;-66
2023/12/27 04:23:30;;;;;;;11.23;1.90;;;;;;;;;;5090942;28;20020;-66
2023/12/27 04:25:56;;;;;;;13.82;1.98;;;;;;;;;;5072914;28;20051;-68
2023/12/27 04:28:21;;;;;;;8.20;1.80;;;;;;;;;;5090650;28;20040;-67
2023/12/27 04:30:47;;;;;;;12.75;2.80;;;;;;;;;;5072919;28;20159;-66
2023/12/27 04:33:12;;;;;;;10.05;2.00;;;;;;;;;;5090640;28;20040;-66
2023/12/27 04:35:38;;;;;;;12.15;2.03;;;;;;;;;;5089991;28;20044;-67
2023/12/27 04:38:03;;;;;;;8.05;1.40;;;;;;;;;;5090912;28;20031;-67
2023/12/27 04:40:28;;;;;;;10.82;2.17;;;;;;;;;;5090740;28;20256;-66
2023/12/27 04:42:54;;;;;;;10.90;2.22;;;;;;;;;;5090438;28;20044;-67
2023/12/27 04:45:19;;;;;;;13.10;2.03;;;;;;;;;;5089980;28;20040;-66
2023/12/27 04:47:45;;;;;;;11.45;2.35;;;;;;;;;;5090583;28;20126;-67
2023/12/27 04:50:10;;;;;;;15.80;2.00;;;;;;;;;;5090481;28;20040;-66
2023/12/27 04:52:36;;;;;;;10.57;2.08;;;;;;;;;;5090284;28;20036;-66
2023/12/27 04:55:01;;;;;;;15.85;2.67;;;;;;;;;;5072559;28;20032;-67
2023/12/27 04:57:26;;;;;;;8.10;2.17;;;;;;;;;;5090400;28;20138;-67
2023/12/27 04:59:52;;;;;;;18.63;2.40;;;;;;;;;;5072235;28;20036;-67
2023/12/27 05:02:17;;;;;;;18.17;2.50;;;;;;;;;;5090223;28;20038;-67
2023/12/27 05:04:42;;;;;;;6.35;1.80;;;;;;;;;;5090293;28;20530;-67
2023/12/27 05:07:08;;;;;;;14.75;2.38;;;;;;;;;;5090365;28;20525;-67
2023/12/27 05:09:34;;;;;;;16.92;2.03;;;;;;;;;;5072386;28;20468;-66
2023/12/27 05:11:59;;;;;;;8.73;2.05;;;;;;;;;;5090386;28;20961;-66
2023/12/27 05:14:24;;;;;;;21.23;2.40;;;;;;;;;;5090195;28;20028;-66
2023/12/27 05:16:50;;;;;;;16.33;2.90;;;;;;;;;;5090185;28;20039;-66
2023/12/27 05:19:16;;;;;;;10.75;2.42;;;;;;;;;;5090226;28;20043;-67
2023/12/27 05:21:41;;;;;;;14.50;2.35;;;;;;;;;;5087297;28;20032;-65
2023/12/27 05:24:07;;;;;;;15.32;3.90;;;;;;;;;;5087588;28;20032;-67
2023/12/27 05:26:32;;;;;;;11.65;1.95;;;;;;;;;;5090073;28;20071;-66
2023/12/27 05:28:58;;;;;;;14.07;1.80;;;;;;;;;;5090010;28;20386;-65
2023/12/27 05:31:23;;;;;;;14.35;2.15;;;;;;;;;;5090153;28;20031;-66
2023/12/27 05:33:48;;;;;;;11.40;2.15;;;;;;;;;;5090279;28;20044;-65
2023/12/27 05:36:14;;;;;;;11.93;2.28;;;;;;;;;;5089457;28;20035;-66
2023/12/27 05:38:39;;;;;;;9.38;1.95;;;;;;;;;;5089929;28;20052;-66
2023/12/27 05:41:04;;;;;;;11.52;2.15;;;;;;;;;;5090128;28;20047;-67
2023/12/27 05:43:30;;;;;;;11.45;2.15;;;;;;;;;;5089761;28;20043;-66
2023/12/27 05:45:56;;;;;;;10.60;2.40;;;;;;;;;;5090130;28;20040;-66
2023/12/27 05:48:21;;;;;;;8.95;1.83;;;;;;;;;;5092991;28;20035;-66
2023/12/27 05:50:46;;;;;;;10.32;2.25;;;;;;;;;;5093278;28;20082;-66
2023/12/27 05:53:11;;;;;;;12.88;1.77;;;;;;;;;;5093584;28;20036;-66
2023/12/27 05:55:37;;;;;;;9.77;2.05;;;;;;;;;;5093688;28;20044;-66
2023/12/27 05:58:03;;;;;;;8.32;1.92;;;;;;;;;;5093427;28;20371;-66
2023/12/27 06:00:28;;;;;;;10.48;1.92;;;;;;;;;;5093696;28;20467;-66
2023/12/27 06:02:53;;;;;;;9.43;1.42;;;;;;;;;;5093386;28;20495;-66
2023/12/27 06:05:19;;;;;;;9.25;1.50;;;;;;;;;;5091696;28;20047;-66
2023/12/27 06:07:46;;;;;;;6.80;1.40;;;;;;;;;;5093756;28;20040;-66
2023/12/27 06:10:11;;;;;;;6.60;1.48;;;;;;;;;;5093503;28;20040;-66
2023/12/27 06:12:37;;;;;;;13.88;1.85;;;;;;;;;;5093013;28;20554;-65
2023/12/27 06:15:03;;;;;;;8.40;1.83;;;;;;;;;;5091668;28;20036;-66
2023/12/27 06:17:28;;;;;;;17.27;2.00;;;;;;;;;;5093100;28;20383;-66
2023/12/27 06:19:53;;;;;;;11.27;2.03;;;;;;;;;;5093253;28;20032;-66
2023/12/27 06:22:19;;;;;;;6.97;1.55;;;;;;;;;;5092908;28;20509;-66
2023/12/27 06:24:44;;;;;;;7.13;1.75;;;;;;;;;;5093313;28;20472;-66
2023/12/27 06:27:10;;;;;;;18.27;2.38;;;;;;;;;;5092966;28;20483;-66
2023/12/27 06:29:35;;;;;;;13.20;2.40;;;;;;;;;;5092993;28;20123;-66
2023/12/27 06:32:02;;;;;;;7.88;2.40;;;;;;;;;;5092814;28;20115;-67
2023/12/27 06:34:28;;;;;;;13.70;2.10;;;;;;;;;;5092812;28;20387;-66
2023/12/27 06:36:53;;;;;;;11.13;2.03;;;;;;;;;;5092692;28;20040;-66
2023/12/27 06:39:18;;;;;;;7.40;2.03;;;;;;;;;;5093058;28;20047;-67
2023/12/27 06:41:44;;;;;;;10.38;2.42;;;;;;;;;;5093054;28;20035;-66
2023/12/27 06:44:09;;;;;;;15.15;2.65;;;;;;;;;;5092364;28;20051;-67
2023/12/27 06:46:35;;;;;;;10.15;2.47;;;;;;;;;;5074595;28;20051;-65
2023/12/27 06:49:01;;;;;;;21.15;2.53;;;;;;;;;;5092490;28;20048;-66
2023/12/27 06:51:27;;;;;;;20.48;3.13;;;;;;;;;;5092324;28;20109;-66
2023/12/27 06:53:52;;;;;;;21.17;2.92;;;;;;;;;;5092575;28;20040;-66
2023/12/27 06:56:17;;;;;;;16.08;2.70;;;;;;;;;;5092413;28;20059;-67
2023/12/27 06:58:42;;;;;;;18.67;2.80;;;;;;;;;;5091899;28;20071;-66
2023/12/27 07:01:09;;;;;;;17.98;2.53;;;;;;;;;;5092447;28;20036;-67
2023/12/27 07:03:35;;;;;;;16.88;2.63;;;;;;;;;;5092230;28;20491;-67
2023/12/27 07:06:00;;;;;;;18.50;2.63;;;;;;;;;;5092073;28;20062;-66
2023/12/27 07:08:25;;;;;;;15.55;2.65;;;;;;;;;;5092441;28;20063;-67
2023/12/27 07:10:51;;;;;;;18.23;2.10;;;;;;;;;;5092005;28;20031;-67
2023/12/27 07:13:16;;;;;;;14.35;3.28;;;;;;;;;;5074023;28;20097;-66
2023/12/27 07:15:42;;;;;;;28.15;2.67;;;;;;;;;;5091308;28;20428;-66
2023/12/27 07:18:07;;;;;;;14.98;2.13;;;;;;;;;;5092296;28;20490;-67
2023/12/27 07:20:32;;;;;;;13.90;2.65;;;;;;;;;;5091919;28;20399;-67
2023/12/27 07:22:58;;;;;;;16.30;2.65;;;;;;;;;;5072928;28;20036;-66
2023/12/27 07:25:23;;;;;;;15.80;2.72;;;;;;;;;;5092095;28;20024;-66
2023/12/27 07:27:48;;;;;;;15.00;2.60;;;;;;;;;;5091496;28;20040;-66
2023/12/27 07:30:14;;;;;;;14.68;2.70;;;;;;;;;;5089190;28;20040;-66
2023/12/27 07:32:39;;;;;;;13.55;2.55;;;;;;;;;;5091921;28;20047;-66
2023/12/27 07:35:05;;;;;;;12.00;2.42;;;;;;;;;;5091295;28;20044;-66
2023/12/27 07:37:30;;;;;;;15.98;2.25;;;;;;;;;;5091752;28;20027;-66
2023/12/27 07:39:56;;;;;;;15.07;3.78;;;;;;;;;;5091609;28;20035;-66
2023/12/27 07:42:21;;;;;;;13.70;2.58;;;;;;;;;;5091473;28;20059;-66
2023/12/27 07:44:47;;;;;;;22.38;2.65;;;;;;;;;;5091742;28;20403;-65
2023/12/27 07:47:12;;;;;;;18.75;2.83;;;;;;;;;;5073546;28;20629;-66
2023/12/27 07:49:38;;;;;;;16.13;2.90;;;;;;;;;;5091413;28;20043;-66
2023/12/27 07:52:03;;;;;;;18.60;2.83;;;;;;;;;;5091268;28;20040;-66
2023/12/27 07:54:31;;;;;;;22.50;3.05;;;;;;;;;;5073376;28;20039;-66
2023/12/27 07:56:56;;;;;;;14.73;2.20;;;;;;;;;;5091110;28;20129;-66
2023/12/27 07:59:22;;;;;;;16.90;2.90;;;;;;;;;;5091215;28;20071;-67
2023/12/27 08:01:47;;;;;;;4.60;1.98;;;;;;;;;;5091394;28;20463;-66
2023/12/27 08:04:12;;;;;;;6.85;2.08;;;;;;;;;;5091224;28;20467;-66
2023/12/27 08:06:37;;;;;;;16.38;2.40;;;;;;;;;;5090979;28;20403;-67
2023/12/27 08:09:03;;;;;;;20.13;2.67;;;;;;;;;;5090644;28;20582;-66
2023/12/27 08:11:29;;;;;;;6.97;1.83;;;;;;;;;;5072647;28;20050;-66
2023/12/27 08:13:54;;;;;;;7.55;1.67;;;;;;;;;;5091127;28;20044;-66
2023/12/27 08:16:19;;;;;;;11.38;2.00;;;;;;;;;;5091069;28;20442;-66
2023/12/27 08:18:45;;;;;;;8.45;1.60;;;;;;;;;;5090983;28;20475;-65
2023/12/27 08:21:10;;;;;;;5.72;1.63;;;;;;;;;;5090516;28;20028;-66
2023/12/27 08:23:38;;;;;;;14.05;2.00;;;;;;;;;;5091029;28;20379;-66
2023/12/27 08:26:07;;;;;;;7.50;1.50;;;;;;;;;;5090213;28;20031;-67
2023/12/27 08:28:36;;;;;;;8.38;1.40;;;;;;;;;;5090429;28;20040;-65
2023/12/27 08:31:04;;;;;;;4.95;1.27;;;;;;;;;;5090524;28;20499;-67
2023/12/27 08:33:31;;;;;;;7.75;1.60;;;;;;;;;;5090754;28;20051;-66
2023/12/27 08:35:57;;;;;;;6.80;1.52;;;;;;;;;;5090466;28;20137;-66
2023/12/27 08:38:24;;;;;;;7.20;1.70;;;;;;;;;;5090853;28;20028;-66
2023/12/27 08:40:50;;;;;;;6.72;1.60;;;;;;;;;;5090410;28;20040;-67
2023/12/27 08:43:16;;;;;;;4.53;1.30;;;;;;;;;;5090464;28;20054;-66
2023/12/27 08:45:41;;;;;;;15.98;1.65;;;;;;;;;;5090157;28;20054;-66
2023/12/27 08:48:07;;;;;;;6.70;1.45;;;;;;;;;;5090591;28;20433;-66
2023/12/27 08:50:32;;;;;;;7.57;1.42;;;;;;;;;;5090439;28;20035;-67
2023/12/27 08:52:57;;;;;;;6.22;1.45;;;;;;;;;;5090337;28;20036;-67
2023/12/27 08:55:23;;;;;;;7.00;1.50;;;;;;;;;;5090583;28;20036;-66
2023/12/27 08:57:48;;;;;;;9.52;1.70;;;;;;;;;;5090059;28;20032;-66
2023/12/27 09:00:14;;;;;;;6.63;1.75;;;;;;;;;;5090597;28;20028;-66
2023/12/27 09:02:39;;;;;;;8.13;2.10;;;;;;;;;;5090053;28;20123;-66
2023/12/27 09:05:08;;;;;;;5.15;1.50;;;;;;;;;;5090227;28;20339;-66
2023/12/27 09:07:33;;;;;;;4.47;1.30;;;;;;;;;;5090580;28;20047;-66
2023/12/27 09:09:59;;;;;;;2.90;0.95;;;;;;;;;;5090296;28;20036;-66
2023/12/27 09:12:24;;;;;;;5.20;1.40;;;;;;;;;;5090166;28;20460;-66
2023/12/27 09:14:50;;;;;;;5.65;1.73;;;;;;;;;;5090288;28;20036;-66
2023/12/27 09:17:15;;;;;;;8.05;1.77;;;;;;;;;;5090108;28;20048;-66
2023/12/27 09:19:42;;;;;;;7.25;1.65;;;;;;;;;;5090165;28;20119;-66
2023/12/27 09:22:07;;;;;;;2.88;1.30;;;;;;;;;;5093420;28;20035;-66
2023/12/27 09:24:33;;;;;;;7.18;2.00;;;;;;;;;;5094470;28;20111;-65
2023/12/27 09:26:58;;;;;;;4.97;1.50;;;;;;;;;;5093933;28;20089;-66
2023/12/27 09:29:24;;;;;;;5.78;1.40;;;;;;;;;;5094139;28;20078;-66
2023/12/27 09:31:49;;;;;;;7.35;1.73;;;;;;;;;;5094271;28;20040;-66
2023/12/27 09:34:14;;;;;;;9.10;1.58;;;;;;;;;;5094400;28;20136;-66
2023/12/27 09:36:40;;;;;;;5.30;1.90;;;;;;;;;;5093045;28;20036;-65
2023/12/27 09:39:05;;;;;;;7.68;2.13;;;;;;;;;;5094260;28;20040;-67
2023/12/27 09:41:31;;;;;;;4.80;1.40;;;;;;;;;;5093833;28;20114;-66
2023/12/27 09:43:57;;;;;;;13.23;2.10;;;;;;;;;;5093753;28;20048;-66
2023/12/27 09:46:24;;;;;;;8.35;1.80;;;;;;;;;;5093983;28;20036;-66
2023/12/27 09:48:50;;;;;;;7.28;1.60;;;;;;;;;;5075659;28;20036;-65
2023/12/27 09:51:22;;;;;;;4.22;2.35;;;;;;;;;;5093607;28;20122;-66
2023/12/27 09:53:49;;;;;;;4.78;1.55;;;;;;;;;;5093634;28;20062;-66
2023/12/27 09:56:15;;;;;;;4.32;1.48;;;;;;;;;;5093158;28;20507;-66
2023/12/27 09:58:40;;;;;;;8.60;2.00;;;;;;;;;;5075512;28;20039;-66
2023/12/27 10:01:06;;;;;;;5.07;1.50;;;;;;;;;;5075398;28;20048;-67
2023/12/27 10:03:34;;;;;;;5.30;1.40;;;;;;;;;;5075603;28;20032;-66
2023/12/27 10:06:27;;;;;;;7.25;1.33;;;;;;;;;;5093319;28;20032;-67
2023/12/27 10:08:52;;;;;;;2.38;1.00;;;;;;;;;;5088143;28;20051;-67
2023/12/27 10:11:18;;;;;;;11.30;2.08;;;;;;;;;;5093311;28;20475;-67
2023/12/27 10:13:45;;;;;;;6.55;1.52;;;;;;;;;;5074950;28;20093;-66
2023/12/27 10:16:10;;;;;;;4.25;1.48;;;;;;;;;;5075118;28;20093;-66
2023/12/27 10:18:35;;;;;;;11.75;1.80;;;;;;;;;;5075266;28;20475;-66
2023/12/27 10:21:01;;;;;;;4.15;1.33;;;;;;;;;;5093020;28;20410;-66
2023/12/27 10:23:26;;;;;;;6.28;1.30;;;;;;;;;;5075253;28;20028;-66
2023/12/27 10:25:52;;;;;;;7.18;1.27;;;;;;;;;;5093057;28;20127;-66
2023/12/27 10:28:22;;;;;;;7.93;1.70;;;;;;;;;;5093051;28;20531;-66
2023/12/27 10:30:47;;;;;;;6.55;1.15;;;;;;;;;;5075051;28;20028;-66
2023/12/27 10:33:13;;;;;;;4.72;0.98;;;;;;;;;;5092114;28;20145;-66
2023/12/27 10:35:38;;;;;;;7.60;1.50;;;;;;;;;;5092788;28;20082;-66
2023/12/27 10:38:05;;;;;;;6.95;1.40;;;;;;;;;;5074952;28;20066;-66
2023/12/27 10:40:31;;;;;;;10.43;1.40;;;;;;;;;;5092673;28;20024;-66
2023/12/27 10:42:57;;;;;;;6.07;1.17;;;;;;;;;;5092705;28;20071;-66
2023/12/27 10:45:22;;;;;;;4.28;1.58;;;;;;;;;;5092283;28;20075;-67
2023/12/27 10:47:51;;;;;;;2.38;1.10;;;;;;;;;;5074614;28;20040;-65
2023/12/27 10:50:19;;;;;;;3.47;1.30;;;;;;;;;;5074940;28;20035;-67
2023/12/27 10:52:46;;;;;;;4.75;1.13;;;;;;;;;;5074397;28;20036;-66
2023/12/27 10:55:13;;;;;;;7.10;1.38;;;;;;;;;;5092313;28;20424;-66
2023/12/27 10:57:40;;;;;;;4.22;1.20;;;;;;;;;;5074040;28;20046;-66
2023/12/27 11:00:08;;;;;;;11.30;2.05;;;;;;;;;;5074425;28;20102;-66
2023/12/27 11:02:36;;;;;;;6.55;1.30;;;;;;;;;;5074803;28;20042;-66
2023/12/27 11:05:02;;;;;;;9.40;1.58;;;;;;;;;;5090358;28;20036;-66
2023/12/27 11:07:28;;;;;;;6.38;1.33;;;;;;;;;;5074488;28;20047;-66
2023/12/27 11:09:55;;;;;;;9.43;1.50;;;;;;;;;;5074348;28;20067;-66
2023/12/27 11:12:21;;;;;;;8.93;2.03;;;;;;;;;;5073843;28;20040;-67
2023/12/27 11:14:47;;;;;;;11.45;2.28;;;;;;;;;;5074158;28;20032;-66
2023/12/27 11:17:14;;;;;;;10.60;2.13;;;;;;;;;;5074088;28;20044;-66
2023/12/27 11:19:39;;;;;;;14.57;2.20;;;;;;;;;;5073730;28;20047;-66
2023/12/27 11:22:04;;;;;;;8.48;2.38;;;;;;;;;;5074100;28;20039;-66
2023/12/27 11:24:32;;;;;;;10.00;1.95;;;;;;;;;;5092094;28;20118;-67
2023/12/27 11:27:00;;;;;;;5.80;1.98;;;;;;;;;;5091389;28;20035;-66
2023/12/27 11:29:30;;;;;;;17.17;2.53;;;;;;;;;;5091964;28;20047;-66
2023/12/27 11:31:59;;;;;;;11.15;2.70;;;;;;;;;;5073793;28;20084;-66
2023/12/27 11:34:25;;;;;;;10.32;2.42;;;;;;;;;;5073713;28;20381;-66
2023/12/27 11:36:50;;;;;;;11.73;2.67;;;;;;;;;;5070766;28;20150;-67
2023/12/27 11:39:19;;;;;;;13.98;2.65;;;;;;;;;;5091891;28;20077;-66
2023/12/27 11:41:45;;;;;;;10.32;3.13;;;;;;;;;;5088789;28;20598;-66
2023/12/27 11:44:13;;;;;;;13.50;3.05;;;;;;;;;;5091427;28;20056;-66
2023/12/27 11:46:39;;;;;;;12.50;3.50;;;;;;;;;;5091758;28;20035;-66
2023/12/27 11:49:04;;;;;;;12.52;2.60;;;;;;;;;;5073142;28;20032;-67
2023/12/27 11:51:34;;;;;;;12.73;3.13;;;;;;;;;;5091475;28;20031;-66
2023/12/27 11:54:04;;;;;;;12.38;2.30;;;;;;;;;;5090384;28;20523;-66
2023/12/27 11:56:31;;;;;;;9.48;2.28;;;;;;;;;;5090574;28;20614;-66
2023/12/27 11:58:59;;;;;;;13.05;2.60;;;;;;;;;;5088448;28;20681;-67
2023/12/27 12:01:25;;;;;;;16.95;2.80;;;;;;;;;;5091419;28;20404;-66
2023/12/27 12:03:57;;;;;;;11.52;2.17;;;;;;;;;;5072888;28;20044;-66
2023/12/27 12:06:53;;;;;;;9.85;2.28;;;;;;;;;;5091237;28;20093;-66
2023/12/27 12:09:20;;;;;;;11.40;3.85;;;;;;;;;;5083091;28;20036;-67
2023/12/27 12:11:46;;;;;;;11.18;2.92;;;;;;;;;;5086305;28;20036;-66
2023/12/27 12:14:11;;;;;;;12.48;2.65;;;;;;;;;;5073035;28;20051;-66
2023/12/27 12:16:38;;;;;;;8.80;1.92;;;;;;;;;;5072866;28;20068;-66
2023/12/27 12:19:04;;;;;;;9.98;2.75;;;;;;;;;;5090709;28;20449;-67
2023/12/27 12:21:30;;;;;;;8.52;1.67;;;;;;;;;;5090953;28;20039;-66
2023/12/27 12:23:55;;;;;;;6.07;2.30;;;;;;;;;;5091021;28;20035;-66
2023/12/27 12:26:21;;;;;;;9.70;2.10;;;;;;;;;;5072726;28;20154;-66
2023/12/27 12:28:56;;;;;;;5.47;1.65;;;;;;;;;;5090852;28;20040;-66
2023/12/27 12:31:21;;;;;;;8.05;1.80;;;;;;;;;;5090589;28;20391;-66
2023/12/27 12:33:47;;;;;;;14.45;1.85;;;;;;;;;;5090781;28;20035;-67
2023/12/27 12:36:12;;;;;;;4.75;1.77;;;;;;;;;;5090558;28;20043;-66
2023/12/27 12:38:37;;;;;;;6.40;2.75;;;;;;;;;;5090723;28;20096;-66
2023/12/27 12:41:03;;;;;;;5.25;1.58;;;;;;;;;;5090374;28;20035;-66
2023/12/27 12:43:28;;;;;;;10.55;1.90;;;;;;;;;;5082990;28;20031;-66
2023/12/27 12:45:57;;;;;;;4.70;1.23;;;;;;;;;;5090367;28;20415;-66
2023/12/27 12:48:24;;;;;;;4.70;1.40;;;;;;;;;;5072881;28;20035;-66
2023/12/27 12:50:49;;;;;;;8.52;1.55;;;;;;;;;;5064118;28;20039;-66
2023/12/27 12:53:15;;;;;;;4.07;1.00;;;;;;;;;;5069074;28;20462;-67
2023/12/27 12:55:41;;;;;;;5.03;1.75;;;;;;;;;;5085802;28;20563;-67
2023/12/27 12:58:08;;;;;;;5.85;1.40;;;;;;;;;;5087062;28;20115;-67
2023/12/27 13:00:34;;;;;;;6.78;1.55;;;;;;;;;;5089263;28;20039;-67
2023/12/27 13:02:59;;;;;;;2.35;1.15;;;;;;;;;;5089935;28;20054;-66
2023/12/27 13:05:26;;;;;;;5.07;1.20;;;;;;;;;;5084009;28;20207;-68
2023/12/27 13:07:51;;;;;;;4.50;1.40;;;;;;;;;;5089949;28;20036;-66
2023/12/27 13:10:19;;;;;;;5.30;2.30;;;;;;;;;;5083509;28;20579;-65
2023/12/27 13:12:45;;;;;;;6.93;1.98;;;;;;;;;;5089732;28;20094;-66
2023/12/27 13:15:10;;;;;;;6.95;2.72;;;;;;;;;;5084833;28;20032;-66
2023/12/27 13:17:35;;;;;;;9.05;2.00;;;;;;;;;;5086781;28;20056;-67
2023/12/27 13:20:01;;;;;;;6.28;1.60;;;;;;;;;;5086502;28;20364;-66
2023/12/27 13:22:26;;;;;;;16.42;5.47;;;;;;;;;;5086410;28;20033;-66
2023/12/27 13:24:52;;;;;;;6.15;1.80;;;;;;;;;;5087622;28;20047;-66
2023/12/27 13:27:17;;;;;;;7.60;1.48;;;;;;;;;;5085662;28;20028;-67
2023/12/27 13:29:43;;;;;;;4.78;2.10;;;;;;;;;;5082492;28;20387;-66
2023/12/27 13:32:08;;;;;;;4.45;1.50;;;;;;;;;;5087356;28;20029;-67
2023/12/27 13:34:33;;;;;;;5.70;1.35;;;;;;;;;;5089584;28;20036;-66
2023/12/27 13:36:59;;;;;;;6.10;1.58;;;;;;;;;;5088898;28;20093;-67
2023/12/27 13:39:24;;;;;;;5.38;1.75;;;;;;;;;;5086368;28;20032;-67
2023/12/27 13:41:49;;;;;;;4.60;1.33;;;;;;;;;;5089526;28;20032;-66
2023/12/27 13:44:15;;;;;;;5.53;1.60;;;;;;;;;;5089442;28;20048;-67
2023/12/27 13:46:40;;;;;;;6.25;1.85;;;;;;;;;;5078354;28;20036;-66
2023/12/27 13:49:05;;;;;;;10.55;1.88;;;;;;;;;;5089266;28;20488;-67
2023/12/27 13:51:31;;;;;;;7.20;2.03;;;;;;;;;;5089472;28;20523;-66
2023/12/27 13:53:56;;;;;;;4.95;1.50;;;;;;;;;;5089479;28;20040;-67
2023/12/27 13:56:21;;;;;;;7.30;1.80;;;;;;;;;;5083128;28;20028;-66
2023/12/27 13:58:47;;;;;;;4.43;1.30;;;;;;;;;;5087518;28;20028;-66
2023/12/27 14:01:12;;;;;;;8.10;1.60;;;;;;;;;;5088911;28;20037;-66
2023/12/27 14:03:38;;;;;;;7.80;1.55;;;;;;;;;;5089610;28;20036;-66
2023/12/27 14:06:04;;;;;;;10.70;1.95;;;;;;;;;;5089568;28;20036;-66
2023/12/27 14:08:30;;;;;;;7.85;2.22;;;;;;;;;;5091760;28;20119;-66
2023/12/27 14:10:56;;;;;;;10.98;2.50;;;;;;;;;;5093338;28;20743;-67
2023/12/27 14:13:21;;;;;;;10.45;1.92;;;;;;;;;;5093360;28;20051;-66
2023/12/27 14:15:47;;;;;;;3.40;0.93;;;;;;;;;;5093573;28;20513;-66
2023/12/27 14:18:12;;;;;;;4.28;1.15;;;;;;;;;;5092768;28;20024;-66
2023/12/27 14:20:38;;;;;;;3.00;0.90;;;;;;;;;;5093499;28;20039;-66
2023/12/27 14:23:04;;;;;;;7.88;1.00;;;;;;;;;;5093243;28;20373;-67
2023/12/27 14:25:30;;;;;;;10.27;1.70;;;;;;;;;;5092807;28;20024;-68
2023/12/27 14:27:57;;;;;;;6.47;1.23;;;;;;;;;;5093124;28;20046;-66
2023/12/27 14:30:22;;;;;;;5.57;1.40;;;;;;;;;;5092893;28;20493;-66